Time;durP1;ratioP1;P1;durP2;ratioP2;P2;SDS_P1;SDS_P2;PMS_P1;PMS_P2;Temp;Humidity;BMP_temperature;BMP_pressure;BME280_temperature;BME280_humidity;BME280_pressure;Samples;Min_cycle;Max_cycle;Signal;HPM_P1;HPM_P2
2022/12/08 01:13:50;;;;;;;14.40;9.80;;;2.50;79.40;;;;;;5067918;28;20441;-58
2022/12/08 01:16:26;;;;;;;15.10;9.57;;;3.20;84.80;;;;;;5068605;28;20339;-57
2022/12/08 01:22:14;;;;;;;12.38;8.20;;;3.20;84.40;;;;;;5059100;22;20125;-84
2022/12/08 01:24:39;;;;;;;12.05;8.45;;;3.30;84.60;;;;;;5046192;22;20053;-62
2022/12/08 01:27:05;;;;;;;12.13;7.90;;;3.30;84.70;;;;;;5048089;28;20053;-68
2022/12/08 01:29:31;;;;;;;10.55;7.80;;;3.30;84.60;;;;;;5060190;28;20029;-65
2022/12/08 01:31:59;;;;;;;9.75;7.05;;;3.40;85.10;;;;;;5029657;28;20045;-66
2022/12/08 01:34:25;;;;;;;8.85;6.22;;;3.40;85.00;;;;;;5040186;28;20068;-68
2022/12/08 01:36:50;;;;;;;8.45;6.38;;;3.50;85.10;;;;;;5039080;28;20122;-58
2022/12/08 01:39:20;;;;;;;9.43;6.93;;;3.60;85.10;;;;;;5064456;22;20191;-86
2022/12/08 01:41:46;;;;;;;9.77;6.93;;;3.60;85.00;;;;;;5054570;28;20033;-86
2022/12/08 01:44:12;;;;;;;11.73;7.63;;;3.70;84.70;;;;;;5040051;28;20025;-86
2022/12/08 01:46:42;;;;;;;11.77;7.68;;;3.70;84.50;;;;;;5052265;28;20021;-87
2022/12/08 01:49:29;;;;;;;13.30;8.63;;;3.80;84.20;;;;;;5059210;28;20041;-87
2022/12/08 01:52:15;;;;;;;12.50;8.05;;;3.80;83.70;;;;;;5057497;28;20302;-86
2022/12/08 01:54:58;;;;;;;10.20;7.80;;;3.80;83.20;;;;;;5042101;28;20026;-86
2022/12/08 01:57:32;;;;;;;10.98;8.23;;;3.80;83.10;;;;;;5050220;28;20040;-87
2022/12/08 02:00:11;;;;;;;12.88;8.30;;;3.80;83.20;;;;;;5044668;28;20156;-91
2022/12/08 02:03:02;;;;;;;11.85;8.05;;;3.80;83.10;;;;;;5044141;28;20533;-92
2022/12/08 02:05:35;;;;;;;12.85;8.18;;;3.70;82.90;;;;;;5062864;28;20056;-91
2022/12/08 02:08:05;;;;;;;11.90;7.78;;;3.70;82.90;;;;;;5074323;28;20042;-91
2022/12/08 02:10:33;;;;;;;10.15;6.90;;;3.70;83.00;;;;;;5070061;28;20013;-91
2022/12/08 02:12:59;;;;;;;10.20;6.68;;;3.70;83.40;;;;;;5066531;28;20087;-91
2022/12/08 02:15:43;;;;;;;10.13;7.05;;;3.70;83.70;;;;;;5054656;28;20025;-90
2022/12/08 02:18:47;;;;;;;11.60;7.75;;;3.70;83.70;;;;;;5045008;28;20006;-91
2022/12/08 02:21:28;;;;;;;8.35;6.22;;;3.80;83.60;;;;;;5048535;28;20092;-90
2022/12/08 02:24:17;;;;;;;6.65;5.45;;;3.80;83.70;;;;;;5060735;23;20061;-54
2022/12/08 02:27:07;;;;;;;10.93;6.03;;;3.80;83.80;;;;;;5052752;28;20036;-54
2022/12/08 02:30:07;;;;;;;9.35;6.57;;;3.90;83.80;;;;;;5045174;28;20033;-61
2022/12/08 02:32:43;;;;;;;10.25;6.60;;;3.90;83.30;;;;;;5042718;28;20470;-56
2022/12/08 02:35:43;;;;;;;9.82;6.70;;;4.00;83.10;;;;;;5049983;28;20025;-57
2022/12/08 02:38:28;;;;;;;9.52;5.82;;;4.00;83.00;;;;;;5051593;28;20527;-63
2022/12/08 02:40:56;;;;;;;8.70;6.68;;;4.00;83.60;;;;;;5039629;28;20025;-62
2022/12/08 02:43:33;;;;;;;9.15;6.60;;;4.00;83.00;;;;;;5048424;28;20033;-61
2022/12/08 02:46:04;;;;;;;9.35;6.32;;;4.00;83.00;;;;;;5056044;28;20036;-64
2022/12/08 02:48:31;;;;;;;8.50;5.78;;;4.00;83.10;;;;;;5055722;28;20490;-52
2022/12/08 02:50:57;;;;;;;9.60;5.70;;;4.00;83.30;;;;;;5053441;28;20033;-50
2022/12/08 02:53:23;;;;;;;7.88;5.78;;;4.10;83.40;;;;;;5047480;28;20055;-49
2022/12/08 02:56:24;;;;;;;7.30;5.38;;;4.10;83.40;;;;;;5057997;28;20025;-55
2022/12/08 02:59:14;;;;;;;11.50;6.70;;;4.10;83.10;;;;;;5006445;28;20030;-56
2022/12/08 03:02:12;;;;;;;8.27;5.75;;;4.20;83.10;;;;;;5038543;28;20050;-57
2022/12/08 03:04:49;;;;;;;8.00;5.85;;;4.20;82.90;;;;;;5051080;28;20382;-53
2022/12/08 03:07:44;;;;;;;11.40;6.00;;;4.20;82.70;;;;;;5051838;28;20029;-50
2022/12/08 03:10:30;;;;;;;10.43;6.72;;;4.20;82.50;;;;;;5048024;28;20036;-51
2022/12/08 03:13:16;;;;;;;10.52;6.75;;;4.20;82.20;;;;;;5041149;28;20107;-48
2022/12/08 03:15:44;;;;;;;10.13;6.78;;;4.10;82.20;;;;;;5048519;28;20028;-49
2022/12/08 03:18:14;;;;;;;9.32;6.45;;;4.10;82.20;;;;;;5051252;28;20036;-55
2022/12/08 03:20:40;;;;;;;9.30;6.53;;;4.10;82.40;;;;;;5052566;28;20033;-54
2022/12/08 03:23:09;;;;;;;9.95;6.22;;;4.10;82.70;;;;;;5051941;28;20183;-51
2022/12/08 03:25:40;;;;;;;9.85;6.35;;;4.10;82.70;;;;;;5052374;28;20057;-54
2022/12/08 03:28:05;;;;;;;10.70;6.97;;;4.10;82.70;;;;;;5050950;28;20052;-65
2022/12/08 03:30:37;;;;;;;13.90;7.15;;;4.10;82.60;;;;;;5060532;28;20060;-67
2022/12/08 03:33:05;;;;;;;;;;;4.00;82.50;;;;;;5049525;28;20020;-59
2022/12/08 03:35:35;;;;;;;8.07;5.07;;;4.00;82.40;;;;;;5055725;28;20391;-63
2022/12/08 03:38:19;;;;;;;9.85;6.03;;;4.00;82.60;;;;;;5058838;28;20029;-56
2022/12/08 03:41:17;;;;;;;10.02;6.15;;;4.00;82.70;;;;;;5046358;28;20063;-56
2022/12/08 03:43:33;;;;;;;8.85;6.32;;;4.00;82.80;;;;;;5053795;28;20037;-50
2022/12/08 03:45:59;;;;;;;9.23;6.45;;;4.10;82.70;;;;;;5047110;28;20040;-52
2022/12/08 03:48:24;;;;;;;9.07;5.95;;;4.00;82.80;;;;;;5044527;28;20075;-67
2022/12/08 03:50:50;;;;;;;10.77;6.63;;;4.00;82.80;;;;;;5050081;28;20090;-68
2022/12/08 03:53:15;;;;;;;10.23;6.32;;;4.10;82.80;;;;;;5049430;28;20045;-67
2022/12/08 03:55:41;;;;;;;9.95;6.72;;;4.10;82.70;;;;;;5053937;28;20029;-62
2022/12/08 03:58:07;;;;;;;12.32;7.10;;;4.10;82.50;;;;;;5051544;28;20076;-56
2022/12/08 04:03:35;;;;;;;11.35;6.90;;;4.00;82.00;;;;;;5083268;28;20639;-49
2022/12/08 04:06:01;;;;;;;8.98;6.15;;;4.00;82.50;;;;;;5076193;28;20040;-53
2022/12/08 04:08:28;;;;;;;10.90;6.72;;;4.00;82.70;;;;;;5069922;28;20035;-66
2022/12/08 04:10:54;;;;;;;8.85;5.60;;;4.00;82.70;;;;;;5068627;28;20451;-66
2022/12/08 04:13:20;;;;;;;9.02;6.47;;;4.00;82.70;;;;;;5076416;28;20039;-48
2022/12/08 04:15:47;;;;;;;9.85;7.03;;;4.00;82.80;;;;;;5085442;28;20039;-48
2022/12/08 04:18:14;;;;;;;11.02;7.05;;;4.00;82.80;;;;;;5066250;28;20475;-57
2022/12/08 04:20:41;;;;;;;12.32;7.60;;;4.00;82.70;;;;;;5069690;28;20466;-56
2022/12/08 04:23:08;;;;;;;10.98;7.57;;;4.00;82.90;;;;;;5074252;28;20036;-54
2022/12/08 04:25:35;;;;;;;11.07;7.15;;;4.00;82.80;;;;;;5066678;28;20120;-54
2022/12/08 04:28:02;;;;;;;12.18;7.10;;;4.00;82.80;;;;;;5069827;28;20549;-56
2022/12/08 04:30:37;;;;;;;10.88;6.50;;;4.00;82.90;;;;;;5071493;28;20027;-57
2022/12/08 04:33:09;;;;;;;12.98;7.43;;;4.00;82.90;;;;;;5063279;28;20090;-67
2022/12/08 04:35:40;;;;;;;;;;;3.90;82.90;;;;;;5063382;28;20033;-67
2022/12/08 04:38:09;;;;;;;11.02;6.38;;;3.90;82.90;;;;;;5069530;28;19920;-67
2022/12/08 04:40:34;;;;;;;12.25;7.18;;;3.90;83.10;;;;;;5054965;28;20100;-67
2022/12/08 04:43:00;;;;;;;11.98;7.68;;;3.90;83.20;;;;;;5062409;28;20124;-55
2022/12/08 04:45:26;;;;;;;14.27;8.55;;;3.90;83.10;;;;;;5065641;28;20029;-57
2022/12/08 04:47:52;;;;;;;12.57;9.10;;;3.90;83.00;;;;;;5074870;28;20095;-51
2022/12/08 04:50:21;;;;;;;15.82;9.55;;;3.90;83.10;;;;;;5067040;28;20057;-52
2022/12/08 04:52:58;;;;;;;18.55;9.35;;;3.90;83.20;;;;;;5079557;28;20068;-57
2022/12/08 04:55:24;;;;;;;14.27;8.98;;;3.90;83.20;;;;;;5066108;28;20637;-57
2022/12/08 04:57:50;;;;;;;19.20;10.57;;;3.90;83.40;;;;;;5063601;28;20029;-55
2022/12/08 05:00:16;;;;;;;17.33;10.00;;;3.90;83.60;;;;;;5065740;28;20024;-57
2022/12/08 05:02:42;;;;;;;14.57;9.68;;;4.00;83.60;;;;;;5057142;28;20049;-62
2022/12/08 05:05:08;;;;;;;15.40;9.10;;;4.00;83.60;;;;;;5069928;28;20438;-61
2022/12/08 05:07:34;;;;;;;13.68;8.23;;;4.00;83.60;;;;;;5070027;28;20054;-58
2022/12/08 05:10:00;;;;;;;11.93;7.80;;;4.00;83.70;;;;;;5069210;28;20067;-57
2022/12/08 05:12:26;;;;;;;12.80;7.90;;;4.00;83.90;;;;;;5062167;28;20035;-57
2022/12/08 05:14:52;;;;;;;11.50;7.68;;;4.10;83.60;;;;;;5054345;28;20033;-57
2022/12/08 05:17:18;;;;;;;11.13;7.10;;;4.10;83.60;;;;;;5054431;28;20035;-58
2022/12/08 05:19:44;;;;;;;10.00;7.55;;;4.20;83.50;;;;;;5056542;28;20038;-56
2022/12/08 05:22:10;;;;;;;11.95;7.53;;;4.20;83.40;;;;;;5054021;28;20458;-55
2022/12/08 05:24:36;;;;;;;11.32;6.75;;;4.20;83.40;;;;;;5051023;28;20119;-54
2022/12/08 05:27:02;;;;;;;14.10;6.90;;;4.30;83.50;;;;;;5050526;28;20448;-55
2022/12/08 05:29:30;;;;;;;15.10;6.93;;;4.30;83.50;;;;;;5044873;28;20036;-51
2022/12/08 05:31:56;;;;;;;11.32;6.53;;;4.30;83.50;;;;;;5046675;28;20041;-54
2022/12/08 05:34:25;;;;;;;13.40;7.18;;;4.40;83.40;;;;;;5051784;28;20074;-54
2022/12/08 05:36:51;;;;;;;9.98;5.50;;;4.40;83.30;;;;;;5049594;28;20029;-54
2022/12/08 05:39:17;;;;;;;10.45;5.80;;;4.50;83.20;;;;;;5051914;28;20546;-52
2022/12/08 05:41:43;;;;;;;9.40;5.57;;;4.50;83.00;;;;;;5039681;28;20036;-54
2022/12/08 05:44:09;;;;;;;35.80;13.43;;;4.50;82.90;;;;;;5050022;28;20036;-56
2022/12/08 05:46:35;;;;;;;13.43;7.20;;;4.50;82.90;;;;;;5047466;28;20127;-53
2022/12/08 05:49:02;;;;;;;12.10;6.55;;;4.50;82.80;;;;;;5054784;28;20094;-53
2022/12/08 05:51:28;;;;;;;8.05;5.30;;;4.60;82.70;;;;;;5051018;28;20075;-54
2022/12/08 05:53:55;;;;;;;6.63;4.80;;;4.60;82.70;;;;;;5058067;28;20020;-56
2022/12/08 05:56:22;;;;;;;5.60;4.30;;;4.60;82.50;;;;;;5047685;28;20057;-55
2022/12/08 05:58:53;;;;;;;28.50;11.38;;;4.60;82.40;;;;;;5050407;28;20057;-55
2022/12/08 06:01:27;;;;;;;22.20;7.75;;;4.60;82.30;;;;;;5047354;28;20039;-56
2022/12/08 06:03:53;;;;;;;12.82;5.70;;;4.60;82.00;;;;;;5046471;28;20061;-62
2022/12/08 06:06:20;;;;;;;7.63;4.85;;;4.60;81.90;;;;;;5046704;28;20029;-61
2022/12/08 06:08:46;;;;;;;7.15;4.70;;;4.60;81.90;;;;;;5049406;28;20032;-63
2022/12/08 06:11:41;;;;;;;8.27;4.60;;;4.50;81.80;;;;;;5046151;28;20719;-60
2022/12/08 06:14:11;;;;;;;8.68;4.28;;;4.50;81.80;;;;;;5041885;28;20052;-63
2022/12/08 06:16:37;;;;;;;7.60;4.43;;;4.50;82.20;;;;;;5057586;28;20021;-64
2022/12/08 06:19:03;;;;;;;7.53;4.75;;;4.50;82.20;;;;;;5044181;28;20067;-63
2022/12/08 06:21:28;;;;;;;9.13;5.18;;;4.60;82.20;;;;;;5041517;28;20037;-60
2022/12/08 06:23:57;;;;;;;9.95;5.10;;;4.60;82.10;;;;;;5044351;28;20271;-63
2022/12/08 06:26:23;;;;;;;13.68;7.40;;;4.60;82.00;;;;;;5044352;28;20028;-62
2022/12/08 06:28:50;;;;;;;10.43;5.55;;;4.60;82.00;;;;;;5045743;28;20383;-62
2022/12/08 06:31:22;;;;;;;8.20;5.18;;;4.70;81.90;;;;;;5046370;28;20560;-63
2022/12/08 06:33:48;;;;;;;7.20;4.95;;;4.70;81.70;;;;;;5039372;28;20025;-61
2022/12/08 06:36:16;;;;;;;8.00;4.63;;;4.70;81.60;;;;;;5047062;28;20036;-61
2022/12/08 06:38:43;;;;;;;8.88;5.22;;;4.70;81.80;;;;;;5029117;28;20067;-61
2022/12/08 06:41:09;;;;;;;7.75;5.00;;;4.70;81.80;;;;;;5043190;28;21033;-62
2022/12/08 06:43:35;;;;;;;6.18;4.45;;;4.70;81.60;;;;;;5045403;28;20033;-61
2022/12/08 06:46:04;;;;;;;9.02;5.07;;;4.70;81.60;;;;;;5042120;28;20029;-62
2022/12/08 06:48:30;;;;;;;7.60;5.13;;;4.70;81.50;;;;;;5038257;28;20091;-61
2022/12/08 06:50:56;;;;;;;6.38;4.90;;;4.70;81.50;;;;;;5042744;28;20386;-60
2022/12/08 06:53:22;;;;;;;6.38;4.38;;;4.70;81.50;;;;;;5040312;28;20099;-59
2022/12/08 06:55:52;;;;;;;6.63;4.90;;;4.70;81.30;;;;;;5041755;28;20033;-62
2022/12/08 06:58:19;;;;;;;8.45;4.88;;;4.70;81.20;;;;;;5043442;28;20086;-61
2022/12/08 07:00:45;;;;;;;6.90;4.53;;;4.70;81.20;;;;;;5038002;28;20090;-60
2022/12/08 07:03:11;;;;;;;5.43;3.97;;;4.70;81.20;;;;;;5040102;28;20067;-61
2022/12/08 07:05:44;;;;;;;5.63;4.30;;;4.70;81.20;;;;;;5042409;28;20029;-61
2022/12/08 07:08:10;;;;;;;6.82;4.70;;;4.70;81.20;;;;;;5035435;28;20059;-61
2022/12/08 07:10:36;;;;;;;7.15;4.50;;;4.70;81.20;;;;;;5040391;28;20479;-58
2022/12/08 07:13:02;;;;;;;6.00;4.28;;;4.70;81.20;;;;;;5033153;28;20086;-62
2022/12/08 07:15:28;;;;;;;7.90;4.43;;;4.70;81.10;;;;;;5045106;28;20060;-62
2022/12/08 07:17:53;;;;;;;4.85;3.95;;;4.70;81.10;;;;;;5045491;28;20035;-63
2022/12/08 07:20:19;;;;;;;4.78;3.97;;;4.80;81.20;;;;;;5040407;28;20057;-62
2022/12/08 07:22:49;;;;;;;4.80;3.80;;;4.80;81.20;;;;;;5044895;28;20124;-61
2022/12/08 07:25:15;;;;;;;5.68;4.07;;;4.80;81.10;;;;;;5046454;28;20138;-63
2022/12/08 07:27:41;;;;;;;7.38;4.72;;;4.80;81.10;;;;;;5041643;28;20106;-61
2022/12/08 07:30:07;;;;;;;12.52;6.32;;;4.90;81.20;;;;;;5040454;28;20029;-63
2022/12/08 07:32:33;;;;;;;12.48;5.38;;;4.90;81.00;;;;;;5042357;28;20164;-61
2022/12/08 07:34:59;;;;;;;10.50;5.10;;;4.90;80.90;;;;;;5045611;28;20061;-60
2022/12/08 07:37:24;;;;;;;8.40;4.28;;;4.90;80.80;;;;;;5044617;28;20025;-58
2022/12/08 07:39:50;;;;;;;6.95;4.50;;;5.00;80.90;;;;;;5042867;28;20487;-61
2022/12/08 07:42:15;;;;;;;4.88;3.92;;;5.00;80.60;;;;;;5037851;28;20043;-61
2022/12/08 07:44:41;;;;;;;6.13;4.43;;;5.00;80.50;;;;;;5041432;28;20024;-61
2022/12/08 07:47:07;;;;;;;6.15;4.25;;;5.00;80.40;;;;;;5043479;28;20033;-61
2022/12/08 07:49:32;;;;;;;8.85;4.63;;;5.00;80.20;;;;;;5040266;28;20450;-61
2022/12/08 07:51:58;;;;;;;11.35;5.60;;;5.00;80.20;;;;;;5037538;28;20049;-60
2022/12/08 07:54:23;;;;;;;12.57;6.43;;;5.00;80.10;;;;;;5033019;28;20029;-57
2022/12/08 07:56:49;;;;;;;16.05;7.65;;;5.00;80.20;;;;;;5034399;28;20033;-59
2022/12/08 07:59:14;;;;;;;9.13;6.00;;;5.00;80.20;;;;;;5032917;28;20799;-61
2022/12/08 08:01:40;;;;;;;11.13;6.95;;;5.00;80.00;;;;;;5025393;28;20138;-59
2022/12/08 08:04:06;;;;;;;11.55;6.20;;;5.00;80.10;;;;;;5022620;28;20036;-60
2022/12/08 08:06:33;;;;;;;8.07;5.47;;;5.00;80.00;;;;;;5031115;28;20536;-62
2022/12/08 08:08:59;;;;;;;9.70;5.47;;;5.00;79.90;;;;;;5031981;28;20025;-62
2022/12/08 08:11:25;;;;;;;10.73;6.03;;;4.90;79.70;;;;;;5021316;28;20542;-59
2022/12/08 08:13:51;;;;;;;16.23;6.80;;;4.90;79.80;;;;;;5024981;28;20029;-60
2022/12/08 08:16:18;;;;;;;16.02;8.13;;;4.90;80.00;;;;;;5026978;28;20036;-62
2022/12/08 08:18:49;;;;;;;18.27;7.82;;;4.90;79.90;;;;;;5015818;28;20563;-59
2022/12/08 08:21:16;;;;;;;16.13;7.10;;;4.90;79.90;;;;;;5028302;28;20033;-61
2022/12/08 08:23:42;;;;;;;10.10;5.43;;;4.90;80.00;;;;;;5023952;28;21224;-61
2022/12/08 08:26:08;;;;;;;6.47;4.60;;;4.90;80.10;;;;;;5032153;28;20036;-60
2022/12/08 08:28:34;;;;;;;16.65;7.70;;;4.90;79.90;;;;;;5029002;28;20758;-57
2022/12/08 08:31:00;;;;;;;14.65;6.32;;;4.90;80.10;;;;;;5019765;28;20029;-60
2022/12/08 08:33:26;;;;;;;10.68;6.05;;;4.90;80.10;;;;;;5033857;28;20041;-62
2022/12/08 08:35:53;;;;;;;7.05;4.60;;;4.80;80.20;;;;;;5037889;28;20025;-61
2022/12/08 08:38:18;;;;;;;8.57;4.78;;;4.80;80.00;;;;;;5032234;28;20379;-64
2022/12/08 08:40:45;;;;;;;6.25;3.85;;;4.80;80.00;;;;;;5040558;28;20041;-58
2022/12/08 08:43:27;;;;;;;12.98;5.75;;;4.80;80.10;;;;;;5027419;28;20679;-60
2022/12/08 08:45:55;;;;;;;10.00;5.07;;;4.90;80.20;;;;;;5031070;28;20029;-62
2022/12/08 08:48:21;;;;;;;9.75;5.68;;;4.80;80.00;;;;;;5029228;28;20144;-60
2022/12/08 08:50:47;;;;;;;9.00;5.72;;;4.80;80.00;;;;;;5028402;28;20029;-60
2022/12/08 08:53:12;;;;;;;7.55;5.13;;;4.90;80.10;;;;;;5032313;28;20183;-59
2022/12/08 08:55:38;;;;;;;6.18;4.47;;;4.90;80.10;;;;;;5037047;28;20844;-62
2022/12/08 08:58:04;;;;;;;8.20;4.97;;;4.90;80.00;;;;;;5035168;28;20463;-58
2022/12/08 09:00:30;;;;;;;7.70;5.30;;;4.90;80.10;;;;;;5031551;28;20037;-59
2022/12/08 09:02:55;;;;;;;11.30;4.97;;;4.90;80.00;;;;;;5044624;28;20825;-59
2022/12/08 09:05:21;;;;;;;8.85;5.82;;;5.00;80.10;;;;;;5039344;28;20039;-59
2022/12/08 09:07:47;;;;;;;17.70;7.63;;;5.00;80.10;;;;;;5024282;28;20055;-60
2022/12/08 09:10:12;;;;;;;16.88;8.13;;;5.00;80.00;;;;;;5033645;28;20036;-63
2022/12/08 09:12:38;;;;;;;25.98;10.93;;;5.10;80.00;;;;;;5039702;28;21644;-59
2022/12/08 09:15:04;;;;;;;21.05;9.60;;;5.10;79.80;;;;;;5038941;28;20662;-62
2022/12/08 09:17:30;;;;;;;23.70;10.57;;;5.10;79.80;;;;;;5028761;28;20047;-63
2022/12/08 09:19:55;;;;;;;38.35;12.65;;;5.10;79.70;;;;;;5013738;28;20029;-57
2022/12/08 09:22:21;;;;;;;41.50;13.38;;;5.00;79.50;;;;;;5038391;28;20033;-61
2022/12/08 09:24:47;;;;;;;25.80;13.38;;;5.10;79.60;;;;;;5038942;28;20029;-60
2022/12/08 09:27:13;;;;;;;21.25;9.48;;;5.10;79.70;;;;;;5032559;28;20088;-60
2022/12/08 09:29:38;;;;;;;19.63;8.15;;;5.10;79.60;;;;;;5031524;28;20040;-58
2022/12/08 09:32:04;;;;;;;16.02;6.82;;;5.10;79.70;;;;;;5030930;28;20044;-59
2022/12/08 09:34:30;;;;;;;10.02;6.10;;;5.10;79.70;;;;;;5028948;28;20635;-59
2022/12/08 09:36:56;;;;;;;15.20;7.63;;;5.10;79.60;;;;;;5024092;28;20032;-59
2022/12/08 09:39:22;;;;;;;15.27;7.22;;;5.10;79.60;;;;;;5024196;28;20134;-60
2022/12/08 09:41:58;;;;;;;9.35;5.32;;;5.10;79.70;;;;;;5018146;28;20168;-59
2022/12/08 09:45:07;;;;;;;10.48;5.93;;;5.20;79.90;;;;;;5025213;28;20058;-62
2022/12/08 09:47:46;;;;;;;27.67;12.65;;;5.20;79.80;;;;;;5026545;28;20079;-60
2022/12/08 09:50:29;;;;;;;26.17;10.65;;;5.30;79.80;;;;;;5026317;28;20404;-59
2022/12/08 09:52:58;;;;;;;25.10;11.43;;;5.30;79.60;;;;;;5027229;28;20037;-61
2022/12/08 09:55:36;;;;;;;25.10;11.05;;;5.30;79.50;;;;;;5026751;28;20061;-63
2022/12/08 09:58:03;;;;;;;36.20;14.98;;;5.30;79.50;;;;;;5024156;28;20036;-60
2022/12/08 10:00:29;;;;;;;34.30;14.32;;;5.30;79.10;;;;;;5018019;28;20030;-61
2022/12/08 10:04:37;;;;;;;55.13;24.00;;;5.30;78.20;;;;;;5078541;27;20562;-62
2022/12/08 10:07:25;;;;;;;56.05;20.90;;;5.30;78.40;;;;;;5082009;28;20493;-61
2022/12/08 10:10:25;;;;;;;93.95;33.55;;;5.20;78.50;;;;;;5080686;28;20032;-59
2022/12/08 10:12:57;;;;;;;71.30;27.48;;;5.20;78.70;;;;;;5081430;28;20086;-55
2022/12/08 10:15:29;;;;;;;59.88;21.70;;;5.10;78.90;;;;;;5078039;28;20162;-62
2022/12/08 10:17:59;;;;;;;125.00;40.47;;;5.20;79.20;;;;;;5082825;28;20151;-60
2022/12/08 10:20:39;;;;;;;86.37;27.33;;;5.20;79.20;;;;;;5075880;28;20080;-59
2022/12/08 10:23:11;;;;;;;37.35;17.13;;;5.20;79.10;;;;;;5070650;28;20291;-62
2022/12/08 10:25:43;;;;;;;59.22;22.00;;;5.20;79.00;;;;;;5079430;28;20096;-60
2022/12/08 10:28:10;;;;;;;35.60;14.50;;;5.20;78.90;;;;;;5071480;28;20038;-60
2022/12/08 10:30:36;;;;;;;30.70;14.70;;;5.20;78.80;;;;;;5072798;28;20060;-61
2022/12/08 10:33:02;;;;;;;35.42;13.95;;;5.20;78.70;;;;;;5069406;28;20047;-61
2022/12/08 10:35:47;;;;;;;20.70;11.02;;;5.20;78.60;;;;;;5071634;28;23581;-63
2022/12/08 10:38:29;;;;;;;14.50;9.10;;;5.20;78.70;;;;;;5074222;28;20027;-63
2022/12/08 10:41:13;;;;;;;17.25;9.00;;;5.20;78.80;;;;;;5070402;28;20722;-62
2022/12/08 10:43:45;;;;;;;16.45;9.02;;;5.20;78.80;;;;;;5078676;28;20036;-59
2022/12/08 10:46:24;;;;;;;20.25;11.05;;;5.20;79.00;;;;;;5080353;28;20074;-58
2022/12/08 10:49:11;;;;;;;23.35;11.07;;;5.20;79.10;;;;;;5067105;28;20047;-59
2022/12/08 10:51:42;;;;;;;31.30;13.60;;;5.20;79.00;;;;;;5070903;28;20062;-61
2022/12/08 10:54:41;;;;;;;32.97;14.60;;;5.30;79.00;;;;;;5077362;28;20051;-59
2022/12/08 10:57:19;;;;;;;34.60;12.68;;;5.30;78.70;;;;;;5065129;28;20488;-60
2022/12/08 10:59:47;;;;;;;26.20;12.02;;;5.30;78.80;;;;;;5068001;28;20039;-59
2022/12/08 11:02:18;;;;;;;44.97;16.25;;;5.30;78.70;;;;;;5073080;28;20044;-62
2022/12/08 11:04:45;;;;;;;24.38;10.48;;;5.30;78.40;;;;;;5070422;28;20043;-59
2022/12/08 11:07:19;;;;;;;43.33;15.77;;;5.30;78.60;;;;;;5067393;28;20035;-61
2022/12/08 11:09:49;;;;;;;32.63;15.20;;;5.30;78.60;;;;;;5070688;28;20028;-60
2022/12/08 11:12:20;;;;;;;18.63;9.23;;;5.30;78.50;;;;;;5070767;28;20035;-61
2022/12/08 11:14:47;;;;;;;14.98;8.95;;;5.30;78.40;;;;;;5060804;28;20028;-60
2022/12/08 11:17:23;;;;;;;46.20;16.45;;;5.20;78.30;;;;;;5040679;28;20056;-61
2022/12/08 11:20:24;;;;;;;43.80;17.77;;;5.20;78.80;;;;;;5050318;28;21403;-60
2022/12/08 11:22:54;;;;;;;55.58;21.33;;;5.10;78.40;;;;;;5054295;28;20037;-62
2022/12/08 11:25:27;;;;;;;61.40;24.63;;;5.10;78.90;;;;;;5063622;28;21091;-59
2022/12/08 11:27:57;;;;;;;65.57;25.92;;;5.10;79.00;;;;;;5066615;28;20284;-60
2022/12/08 11:30:28;;;;;;;59.25;24.42;;;5.20;79.20;;;;;;5059872;28;20028;-61
2022/12/08 11:33:02;;;;;;;46.33;19.50;;;5.20;79.00;;;;;;5067734;28;20155;-61
2022/12/08 11:35:32;;;;;;;45.42;21.67;;;5.20;78.90;;;;;;5063989;28;20028;-61
2022/12/08 11:38:10;;;;;;;26.38;13.80;;;5.20;78.90;;;;;;5059217;28;20036;-61
2022/12/08 11:40:38;;;;;;;21.45;11.95;;;5.20;78.90;;;;;;5056065;28;20029;-60
2022/12/08 11:43:33;;;;;;;11.20;7.32;;;5.30;78.80;;;;;;5047132;28;20039;-62
2022/12/08 11:46:33;;;;;;;8.57;5.90;;;5.20;78.40;;;;;;5051574;28;20066;-60
2022/12/08 11:49:03;;;;;;;13.95;7.28;;;5.30;78.50;;;;;;5047203;28;20058;-59
2022/12/08 11:51:50;;;;;;;29.30;14.60;;;5.20;78.40;;;;;;5055201;28;20065;-64
2022/12/08 11:54:34;;;;;;;35.88;18.33;;;5.20;78.40;;;;;;5061915;28;20041;-60
2022/12/08 11:57:02;;;;;;;40.30;19.65;;;5.10;78.00;;;;;;5060861;28;20144;-61
2022/12/08 11:59:43;;;;;;;28.15;16.75;;;5.10;78.00;;;;;;5067947;28;20044;-61
2022/12/08 12:02:17;;;;;;;33.08;15.68;;;5.00;78.00;;;;;;5061336;28;20036;-59
2022/12/08 12:05:07;;;;;;;13.88;8.82;;;5.00;78.40;;;;;;5063831;28;20024;-65
2022/12/08 12:07:51;;;;;;;11.75;7.88;;;4.90;78.50;;;;;;5058844;28;20063;-59
2022/12/08 12:10:35;;;;;;;9.88;7.32;;;4.90;78.40;;;;;;5055931;28;20134;-63
2022/12/08 12:13:32;;;;;;;7.10;5.68;;;4.80;78.50;;;;;;5053612;28;20036;-60
2022/12/08 12:16:17;;;;;;;8.68;6.50;;;4.80;78.70;;;;;;5065181;28;20497;-65
2022/12/08 12:18:45;;;;;;;8.93;6.25;;;4.70;78.90;;;;;;5054866;28;20096;-62
2022/12/08 12:21:54;;;;;;;7.63;6.05;;;4.80;79.00;;;;;;5063976;28;20657;-61
2022/12/08 12:24:29;;;;;;;11.02;8.07;;;4.80;79.00;;;;;;5032679;28;20037;-60
2022/12/08 12:27:06;;;;;;;8.27;6.57;;;4.80;79.40;;;;;;5056706;28;20039;-61
2022/12/08 12:29:36;;;;;;;12.73;8.70;;;4.80;79.50;;;;;;5060444;28;20035;-56
2022/12/08 12:32:05;;;;;;;26.30;15.27;;;4.80;79.40;;;;;;5063694;28;20098;-59
2022/12/08 12:34:43;;;;;;;20.25;11.00;;;4.80;79.20;;;;;;5061640;28;20032;-60
2022/12/08 12:37:13;;;;;;;18.30;10.27;;;4.80;79.10;;;;;;5058465;28;21336;-59
2022/12/08 12:39:58;;;;;;;12.43;8.43;;;4.80;79.20;;;;;;5051482;28;20038;-59
2022/12/08 12:42:40;;;;;;;10.73;7.60;;;4.80;79.20;;;;;;5055878;28;20040;-60
2022/12/08 12:45:21;;;;;;;9.68;6.85;;;4.80;79.20;;;;;;5058508;28;20218;-60
2022/12/08 12:47:47;;;;;;;12.45;8.18;;;4.80;79.20;;;;;;5053520;28;20768;-58
2022/12/08 12:50:33;;;;;;;11.52;7.85;;;4.70;79.00;;;;;;5062092;28;20024;-58
2022/12/08 12:53:25;;;;;;;9.57;7.18;;;4.70;79.10;;;;;;5063802;28;20047;-58
2022/12/08 12:56:02;;;;;;;9.20;6.30;;;4.70;79.20;;;;;;5064208;28;20058;-59
2022/12/08 12:58:28;;;;;;;9.07;6.45;;;4.70;79.30;;;;;;5058315;28;20036;-59
2022/12/08 13:01:10;;;;;;;8.50;5.95;;;4.60;79.20;;;;;;5056704;28;20059;-60
2022/12/08 13:03:47;;;;;;;7.18;5.82;;;4.50;79.20;;;;;;5056586;28;20083;-57
2022/12/08 13:06:32;;;;;;;8.80;6.00;;;4.50;79.50;;;;;;5046720;28;21897;-59
2022/12/08 13:08:58;;;;;;;7.80;5.35;;;4.40;79.90;;;;;;5051217;28;20036;-61
2022/12/08 13:11:25;;;;;;;9.68;5.93;;;4.40;80.10;;;;;;5052061;28;20044;-57
2022/12/08 13:14:03;;;;;;;7.78;5.47;;;4.40;80.20;;;;;;5044534;28;20036;-58
2022/12/08 13:16:38;;;;;;;8.30;5.70;;;4.40;80.30;;;;;;5052710;28;20062;-60
2022/12/08 13:19:12;;;;;;;9.45;6.75;;;4.40;80.20;;;;;;5058040;28;20032;-55
2022/12/08 13:21:38;;;;;;;9.13;5.80;;;4.40;80.10;;;;;;5051277;28;20037;-54
2022/12/08 13:24:12;;;;;;;8.75;5.68;;;4.30;80.30;;;;;;5048086;28;20043;-55
2022/12/08 13:27:02;;;;;;;8.35;5.60;;;4.30;80.80;;;;;;5046634;28;20139;-54
2022/12/08 13:29:29;;;;;;;7.43;5.30;;;4.40;81.60;;;;;;5046298;28;20196;-58
2022/12/08 13:32:07;;;;;;;8.90;6.55;;;4.40;81.00;;;;;;5049527;28;20031;-54
2022/12/08 13:34:50;;;;;;;8.55;6.00;;;4.40;80.70;;;;;;5057255;28;20077;-55
2022/12/08 13:37:34;;;;;;;7.28;5.30;;;4.40;80.40;;;;;;5060543;28;20393;-54
2022/12/08 13:40:08;;;;;;;8.93;5.68;;;4.30;80.60;;;;;;5056820;28;20138;-57
2022/12/08 13:42:52;;;;;;;6.78;5.30;;;4.30;80.90;;;;;;5054712;28;20036;-55
2022/12/08 13:45:24;;;;;;;7.25;5.20;;;4.30;81.10;;;;;;5050109;28;20160;-54
2022/12/08 13:48:04;;;;;;;7.28;5.53;;;4.40;81.10;;;;;;5041446;28;20068;-57
2022/12/08 13:50:45;;;;;;;6.93;4.43;;;4.30;80.90;;;;;;5048444;28;20028;-55
2022/12/08 13:53:16;;;;;;;6.32;4.57;;;4.30;81.00;;;;;;5044970;28;20461;-56
2022/12/08 13:55:56;;;;;;;7.63;5.07;;;4.20;81.20;;;;;;5056120;28;20093;-56
2022/12/08 13:58:29;;;;;;;5.57;4.45;;;4.20;81.50;;;;;;5048378;28;20111;-55
2022/12/08 14:01:00;;;;;;;6.63;4.85;;;4.20;81.80;;;;;;5047278;28;20037;-55
2022/12/08 14:03:26;;;;;;;6.80;5.25;;;4.30;82.00;;;;;;5050577;28;20075;-56
2022/12/08 14:05:52;;;;;;;5.88;4.38;;;4.30;82.00;;;;;;5052718;28;20454;-54
2022/12/08 14:08:30;;;;;;;5.97;4.40;;;4.40;82.10;;;;;;5059271;28;20093;-55
2022/12/08 14:11:04;;;;;;;7.53;5.00;;;4.50;82.10;;;;;;5055117;28;20043;-55
2022/12/08 14:13:32;;;;;;;7.85;5.78;;;4.50;82.00;;;;;;5050276;28;20035;-55
2022/12/08 14:15:58;;;;;;;6.38;4.47;;;4.50;81.70;;;;;;5053288;28;20044;-55
2022/12/08 14:18:27;;;;;;;7.13;4.65;;;4.50;81.80;;;;;;5050902;28;20577;-54
2022/12/08 14:21:19;;;;;;;7.00;4.60;;;4.60;81.70;;;;;;5065230;28;20066;-57
2022/12/08 14:23:44;;;;;;;7.38;5.28;;;4.60;81.50;;;;;;5060974;28;20047;-54
2022/12/08 14:26:12;;;;;;;6.55;4.70;;;4.60;81.70;;;;;;5053335;28;20731;-54
2022/12/08 14:28:37;;;;;;;6.03;4.38;;;4.60;81.60;;;;;;5050488;28;20111;-56
2022/12/08 14:31:03;;;;;;;6.25;4.60;;;4.60;81.30;;;;;;5043073;28;20121;-55
2022/12/08 14:33:30;;;;;;;5.95;4.05;;;4.60;81.10;;;;;;5044983;28;20478;-58
2022/12/08 14:35:56;;;;;;;5.95;4.05;;;4.50;81.10;;;;;;5057034;28;21709;-52